Aurelino Leal, Brazil
Current Conditions -  °F | °C
As of 12:00 PM on Monday 29 Dec 2014 (Local Time) from SBIL Reporting Station
Scattered Clouds Scattered Clouds  
Wind Chill: 84°   Ceiling: Unl
Heat Index: 91°   Visibility: 6mi
Dew Point: 73°   Wind: 9mph
Humidity: 70%   Direction: 30°NNE
Pressure: 29.94"   Gusts: NA
Location:  14.32°S, 39.33°W
Report Text: SBIL 291500Z 03008KT 9999 SCT030 29/23 Q1014
Loading
Personal Weather Stations






























Interactive Weather Map New forecast layout! Learn more

10-Day Weather Forecast

Advertisements
Track Severe Weather on mobile